Time;durP1;ratioP1;P1;durP2;ratioP2;P2;SDS_P1;SDS_P2;PMS_P1;PMS_P2;Temp;Humidity;BMP_temperature;BMP_pressure;BME280_temperature;BME280_humidity;BME280_pressure;Samples;Min_cycle;Max_cycle;Signal;HPM_P1;HPM_P2
2022/04/27 00:00:21;;;;;;;11.93;6.97;;;;;;;;;;5074679;28;20033;-74
2022/04/27 00:02:48;;;;;;;13.77;7.15;;;;;;;;;;5073727;28;20367;-74
2022/04/27 00:05:14;;;;;;;16.00;6.68;;;;;;;;;;5074840;28;20036;-73
2022/04/27 00:07:40;;;;;;;15.90;7.30;;;;;;;;;;5074902;28;20462;-74
2022/04/27 00:10:07;;;;;;;11.20;6.55;;;;;;;;;;5074872;28;20060;-73
2022/04/27 00:12:36;;;;;;;14.13;6.47;;;;;;;;;;5061880;28;20021;-73
2022/04/27 00:15:03;;;;;;;10.55;6.72;;;;;;;;;;5054756;28;20029;-74
2022/04/27 00:17:29;;;;;;;15.60;6.50;;;;;;;;;;5068467;28;20497;-74
2022/04/27 00:19:55;;;;;;;12.00;6.90;;;;;;;;;;5074541;28;20032;-74
2022/04/27 00:22:22;;;;;;;12.18;6.68;;;;;;;;;;5074816;28;20032;-74
2022/04/27 00:24:48;;;;;;;12.30;6.18;;;;;;;;;;5074598;28;20020;-74
2022/04/27 00:27:14;;;;;;;10.25;6.30;;;;;;;;;;5074647;28;20031;-74
2022/04/27 00:29:40;;;;;;;11.68;6.40;;;;;;;;;;5074366;28;20035;-74
2022/04/27 00:32:07;;;;;;;14.80;6.78;;;;;;;;;;5074507;28;20016;-74
2022/04/27 00:34:33;;;;;;;10.65;7.20;;;;;;;;;;5074494;28;20037;-73
2022/04/27 00:36:59;;;;;;;13.20;7.32;;;;;;;;;;5073597;28;20033;-74
2022/04/27 00:39:25;;;;;;;13.95;6.97;;;;;;;;;;5074379;28;20033;-74
2022/04/27 00:42:00;;;;;;;14.35;7.10;;;;;;;;;;5074508;28;20033;-74
2022/04/27 00:44:31;;;;;;;16.48;7.03;;;;;;;;;;5074400;28;20598;-74
2022/04/27 00:46:57;;;;;;;12.45;6.95;;;;;;;;;;5074127;28;20040;-73
2022/04/27 00:49:23;;;;;;;14.57;6.30;;;;;;;;;;5072882;28;20032;-73
2022/04/27 00:51:50;;;;;;;13.07;5.97;;;;;;;;;;5074187;28;20158;-74
2022/04/27 00:54:18;;;;;;;12.85;6.43;;;;;;;;;;5074227;28;20029;-74
2022/04/27 00:56:45;;;;;;;14.50;7.00;;;;;;;;;;5074044;28;20028;-74
2022/04/27 00:59:11;;;;;;;11.85;6.68;;;;;;;;;;5073987;28;20024;-74
2022/04/27 01:01:37;;;;;;;10.98;6.50;;;;;;;;;;5073681;28;20024;-74
2022/04/27 01:04:05;;;;;;;13.38;7.50;;;;;;;;;;5074032;28;20020;-74
2022/04/27 01:06:32;;;;;;;12.13;6.97;;;;;;;;;;5073806;28;20328;-74
2022/04/27 01:08:58;;;;;;;13.13;6.65;;;;;;;;;;5073517;28;20064;-73
2022/04/27 01:11:24;;;;;;;13.93;7.75;;;;;;;;;;5070375;28;20021;-74
2022/04/27 01:13:50;;;;;;;12.52;7.28;;;;;;;;;;5053862;28;20113;-74
2022/04/27 01:16:16;;;;;;;15.43;7.72;;;;;;;;;;5057281;28;20518;-74
2022/04/27 01:18:45;;;;;;;14.20;6.97;;;;;;;;;;5073602;28;20032;-74
2022/04/27 01:21:12;;;;;;;12.68;7.90;;;;;;;;;;5073528;28;20482;-73
2022/04/27 01:23:39;;;;;;;11.40;7.18;;;;;;;;;;5073517;28;20433;-74
2022/04/27 01:26:05;;;;;;;14.40;8.00;;;;;;;;;;5073493;28;20024;-74
2022/04/27 01:28:32;;;;;;;13.18;7.38;;;;;;;;;;5073431;28;20028;-74
2022/04/27 01:30:59;;;;;;;14.02;7.78;;;;;;;;;;5073183;28;20021;-74
2022/04/27 01:33:26;;;;;;;17.73;7.82;;;;;;;;;;5073322;28;20470;-73
2022/04/27 01:35:53;;;;;;;13.02;7.15;;;;;;;;;;5073055;28;20065;-74
2022/04/27 01:38:19;;;;;;;16.17;8.60;;;;;;;;;;5073324;28;20103;-74
2022/04/27 01:40:46;;;;;;;13.57;7.57;;;;;;;;;;5073279;28;20036;-74
2022/04/27 01:43:15;;;;;;;16.08;7.25;;;;;;;;;;5073300;28;20048;-73
2022/04/27 01:45:41;;;;;;;13.35;7.15;;;;;;;;;;5073038;28;20020;-74
2022/04/27 01:48:07;;;;;;;18.45;8.20;;;;;;;;;;5072533;28;20021;-74
2022/04/27 01:50:33;;;;;;;12.32;7.93;;;;;;;;;;5072740;28;20025;-74
2022/04/27 01:55:44;;;;;;;16.67;7.82;;;;;;;;;;5072898;28;20039;-74
2022/04/27 01:58:10;;;;;;;13.18;7.72;;;;;;;;;;5072698;28;20033;-74
2022/04/27 02:00:38;;;;;;;13.05;7.97;;;;;;;;;;5072572;28;20027;-74
2022/04/27 02:03:04;;;;;;;18.20;7.80;;;;;;;;;;5072877;28;20475;-73
2022/04/27 02:05:30;;;;;;;18.02;8.60;;;;;;;;;;5072591;28;20046;-73
2022/04/27 02:07:56;;;;;;;12.65;7.57;;;;;;;;;;5072596;28;20522;-74
2022/04/27 02:10:22;;;;;;;14.68;8.00;;;;;;;;;;5072672;28;20501;-74
2022/04/27 02:12:48;;;;;;;17.73;8.02;;;;;;;;;;5057583;28;20116;-74
2022/04/27 02:15:14;;;;;;;13.55;8.40;;;;;;;;;;5052498;28;20032;-74
2022/04/27 02:17:40;;;;;;;14.90;7.95;;;;;;;;;;5067651;28;20033;-74
2022/04/27 02:20:06;;;;;;;14.02;8.00;;;;;;;;;;5072199;28;20073;-74
2022/04/27 02:22:36;;;;;;;15.32;7.85;;;;;;;;;;5072459;28;20032;-74
2022/04/27 02:25:02;;;;;;;15.70;7.50;;;;;;;;;;5072356;28;20032;-74
2022/04/27 02:27:29;;;;;;;17.73;8.20;;;;;;;;;;5072263;28;20020;-73
2022/04/27 02:29:55;;;;;;;16.90;7.57;;;;;;;;;;5071834;28;20016;-74
2022/04/27 02:32:22;;;;;;;16.52;8.65;;;;;;;;;;5072193;28;20111;-74
2022/04/27 02:34:50;;;;;;;19.65;9.07;;;;;;;;;;5072176;28;20104;-74
2022/04/27 02:37:16;;;;;;;14.48;7.97;;;;;;;;;;5072011;28;20032;-74
2022/04/27 02:39:42;;;;;;;16.65;7.82;;;;;;;;;;5072101;28;20382;-73
2022/04/27 02:42:09;;;;;;;16.20;8.02;;;;;;;;;;5072187;28;20035;-74
2022/04/27 02:44:35;;;;;;;14.95;8.20;;;;;;;;;;5070691;28;20020;-74
2022/04/27 02:47:01;;;;;;;15.30;8.23;;;;;;;;;;5071876;28;20024;-74
2022/04/27 02:52:11;;;;;;;15.70;8.15;;;;;;;;;;5071872;28;20098;-74
2022/04/27 02:54:37;;;;;;;15.25;8.55;;;;;;;;;;5071952;28;20086;-74
2022/04/27 02:57:03;;;;;;;19.30;9.60;;;;;;;;;;5071819;28;20029;-73
2022/04/27 02:59:29;;;;;;;18.77;9.20;;;;;;;;;;5071360;28;20033;-74
2022/04/27 03:01:55;;;;;;;20.25;8.75;;;;;;;;;;5071532;28;20017;-74
2022/04/27 03:04:21;;;;;;;17.10;8.77;;;;;;;;;;5071824;28;20099;-74
2022/04/27 03:06:48;;;;;;;19.35;9.88;;;;;;;;;;5071569;28;20382;-73
2022/04/27 03:09:14;;;;;;;22.02;9.63;;;;;;;;;;5071490;28;20056;-74
2022/04/27 03:11:40;;;;;;;17.83;10.00;;;;;;;;;;5064964;28;20049;-74
2022/04/27 03:14:06;;;;;;;18.98;10.43;;;;;;;;;;5051685;28;20048;-74
2022/04/27 03:16:32;;;;;;;16.17;8.93;;;;;;;;;;5057244;28;20054;-74
2022/04/27 03:18:58;;;;;;;20.67;9.85;;;;;;;;;;5071169;28;20025;-73
2022/04/27 03:21:24;;;;;;;18.15;9.70;;;;;;;;;;5071217;28;20472;-73
2022/04/27 03:23:50;;;;;;;18.13;9.75;;;;;;;;;;5071362;28;20494;-73
2022/04/27 03:26:16;;;;;;;20.52;10.50;;;;;;;;;;5071109;28;20672;-73
2022/04/27 03:28:42;;;;;;;16.70;8.65;;;;;;;;;;5071165;28;20020;-73
2022/04/27 03:31:08;;;;;;;16.88;9.32;;;;;;;;;;5071118;28;20024;-73
2022/04/27 03:33:34;;;;;;;13.52;7.82;;;;;;;;;;5071078;28;20451;-73
2022/04/27 03:36:00;;;;;;;14.57;8.48;;;;;;;;;;5071138;28;20023;-74
2022/04/27 03:38:26;;;;;;;14.68;8.23;;;;;;;;;;5070478;28;20104;-73
2022/04/27 03:40:53;;;;;;;14.48;8.80;;;;;;;;;;5070692;28;20063;-74
2022/04/27 03:43:19;;;;;;;13.93;8.20;;;;;;;;;;5071114;28;20070;-73
2022/04/27 03:45:45;;;;;;;18.95;9.20;;;;;;;;;;5069880;28;20453;-74
2022/04/27 03:48:11;;;;;;;12.77;7.65;;;;;;;;;;5070381;28;20063;-73
2022/04/27 03:50:37;;;;;;;15.55;9.02;;;;;;;;;;5070586;28;20060;-74
2022/04/27 03:53:03;;;;;;;16.50;8.80;;;;;;;;;;5071443;28;20074;-73
2022/04/27 03:55:33;;;;;;;16.90;9.05;;;;;;;;;;5071332;28;20070;-73
2022/04/27 03:57:59;;;;;;;18.45;9.00;;;;;;;;;;5071001;28;20028;-74
2022/04/27 04:00:25;;;;;;;14.30;9.00;;;;;;;;;;5070495;28;20130;-73
2022/04/27 04:02:51;;;;;;;14.88;8.77;;;;;;;;;;5070924;28;20029;-74
2022/04/27 04:05:17;;;;;;;16.92;9.55;;;;;;;;;;5070776;28;20020;-74
2022/04/27 04:07:43;;;;;;;18.90;8.80;;;;;;;;;;5070897;28;20450;-74
2022/04/27 04:10:09;;;;;;;15.82;9.18;;;;;;;;;;5070576;28;20040;-73
2022/04/27 04:12:35;;;;;;;14.70;9.10;;;;;;;;;;5071447;28;20100;-74
2022/04/27 04:15:02;;;;;;;20.38;10.18;;;;;;;;;;5074495;28;20027;-73
2022/04/27 04:17:28;;;;;;;20.33;9.35;;;;;;;;;;5074315;28;20044;-73
2022/04/27 04:19:54;;;;;;;20.88;9.75;;;;;;;;;;5074055;28;20024;-74
2022/04/27 04:22:20;;;;;;;21.80;10.70;;;;;;;;;;5074419;28;20355;-74
2022/04/27 04:30:16;;;;;;;16.70;9.48;;;;;;;;;;5071785;28;20031;-73
2022/04/27 04:32:42;;;;;;;21.58;10.65;;;;;;;;;;5074200;28;20060;-74
2022/04/27 04:35:08;;;;;;;18.38;9.30;;;;;;;;;;5074183;28;20415;-73
2022/04/27 04:37:34;;;;;;;14.82;8.82;;;;;;;;;;5074295;28;20490;-74
2022/04/27 04:40:01;;;;;;;16.55;9.23;;;;;;;;;;5074328;28;20404;-74
2022/04/27 04:42:27;;;;;;;21.15;9.15;;;;;;;;;;5074504;28;20024;-74
2022/04/27 04:44:53;;;;;;;16.63;9.85;;;;;;;;;;5074566;28;20442;-73
2022/04/27 04:47:19;;;;;;;21.17;10.90;;;;;;;;;;5074286;28;20107;-74
2022/04/27 04:49:45;;;;;;;18.50;10.52;;;;;;;;;;5074299;28;20056;-73
2022/04/27 04:52:11;;;;;;;21.23;11.23;;;;;;;;;;5074119;28;20063;-74
2022/04/27 04:54:37;;;;;;;21.20;11.20;;;;;;;;;;5074193;28;20052;-74
2022/04/27 04:57:03;;;;;;;16.90;10.77;;;;;;;;;;5074040;28;20433;-74
2022/04/27 04:59:29;;;;;;;20.77;11.13;;;;;;;;;;5073984;28;20032;-74
2022/04/27 05:01:55;;;;;;;19.70;10.38;;;;;;;;;;5073954;28;20021;-74
2022/04/27 05:04:22;;;;;;;17.27;10.63;;;;;;;;;;5073774;28;20033;-74
2022/04/27 05:06:48;;;;;;;16.50;10.00;;;;;;;;;;5073528;28;20020;-73
2022/04/27 05:09:14;;;;;;;17.23;9.68;;;;;;;;;;5073255;28;20132;-73
2022/04/27 05:11:40;;;;;;;21.08;10.32;;;;;;;;;;5073082;28;20032;-73
2022/04/27 05:14:06;;;;;;;15.68;9.15;;;;;;;;;;5073318;28;20016;-73
2022/04/27 05:16:33;;;;;;;16.77;9.85;;;;;;;;;;5073136;28;20020;-73
2022/04/27 05:18:59;;;;;;;19.42;10.55;;;;;;;;;;5073055;28;20077;-72
2022/04/27 05:21:25;;;;;;;20.73;11.23;;;;;;;;;;5073518;28;20102;-73
2022/04/27 05:23:51;;;;;;;20.75;11.43;;;;;;;;;;5073392;28;20099;-73
2022/04/27 05:26:17;;;;;;;18.02;10.07;;;;;;;;;;5073509;28;20028;-73
2022/04/27 05:34:13;;;;;;;14.82;9.43;;;;;;;;;;5073493;28;20078;-73
2022/04/27 05:36:39;;;;;;;19.60;10.48;;;;;;;;;;5073014;28;20031;-73
2022/04/27 05:39:05;;;;;;;22.17;10.18;;;;;;;;;;5073353;28;20074;-73
2022/04/27 05:41:31;;;;;;;18.10;10.23;;;;;;;;;;5073424;28;20063;-73
2022/04/27 05:43:57;;;;;;;23.13;10.90;;;;;;;;;;5073247;28;20035;-74
2022/04/27 05:46:23;;;;;;;16.98;10.30;;;;;;;;;;5073108;28;20017;-73
2022/04/27 05:48:50;;;;;;;16.02;9.50;;;;;;;;;;5073171;28;20419;-74
2022/04/27 05:51:16;;;;;;;14.57;8.85;;;;;;;;;;5073080;28;20029;-73
2022/04/27 05:53:42;;;;;;;12.32;8.20;;;;;;;;;;5072432;28;20429;-73
2022/04/27 05:56:08;;;;;;;13.88;8.95;;;;;;;;;;5072470;28;20024;-73
2022/04/27 05:58:35;;;;;;;13.75;8.93;;;;;;;;;;5072396;28;20032;-73
2022/04/27 06:01:01;;;;;;;15.13;8.60;;;;;;;;;;5072469;28;20030;-73
2022/04/27 06:03:27;;;;;;;11.95;8.45;;;;;;;;;;5072277;28;20100;-73
2022/04/27 06:05:53;;;;;;;15.57;8.43;;;;;;;;;;5072247;28;20035;-73
2022/04/27 06:08:19;;;;;;;15.95;9.35;;;;;;;;;;5072145;28;20106;-73
2022/04/27 06:10:45;;;;;;;12.32;8.65;;;;;;;;;;5072508;28;20024;-73
2022/04/27 06:13:11;;;;;;;15.73;8.82;;;;;;;;;;5072506;28;20025;-73
2022/04/27 06:15:37;;;;;;;18.30;9.18;;;;;;;;;;5072448;28;20035;-73
2022/04/27 06:18:03;;;;;;;15.77;7.85;;;;;;;;;;5072392;28;20033;-73
2022/04/27 06:20:29;;;;;;;17.98;8.25;;;;;;;;;;5072184;28;20060;-73
2022/04/27 06:22:57;;;;;;;13.63;7.93;;;;;;;;;;5072366;28;20456;-73
2022/04/27 06:25:25;;;;;;;19.13;8.30;;;;;;;;;;5072431;28;20055;-73
2022/04/27 06:27:51;;;;;;;13.65;7.88;;;;;;;;;;5072236;28;20447;-73
2022/04/27 06:30:17;;;;;;;17.65;7.60;;;;;;;;;;5071997;28;20030;-73
2022/04/27 06:32:43;;;;;;;12.95;7.20;;;;;;;;;;5072472;28;20048;-73
2022/04/27 06:35:13;;;;;;;16.00;7.20;;;;;;;;;;5071617;28;20028;-73
2022/04/27 06:37:39;;;;;;;19.88;8.45;;;;;;;;;;5072233;28;20021;-73
2022/04/27 06:40:06;;;;;;;10.88;6.43;;;;;;;;;;5071404;28;20025;-73
2022/04/27 06:42:32;;;;;;;12.70;6.30;;;;;;;;;;5050771;28;20037;-73
2022/04/27 06:45:01;;;;;;;13.93;6.40;;;;;;;;;;5052077;28;20032;-75
2022/04/27 06:47:27;;;;;;;14.88;5.85;;;;;;;;;;5051781;28;20044;-73
2022/04/27 06:49:53;;;;;;;11.60;5.63;;;;;;;;;;5051808;28;20037;-72
2022/04/27 06:52:19;;;;;;;18.25;6.40;;;;;;;;;;5050638;28;20032;-72
2022/04/27 06:54:46;;;;;;;13.93;5.85;;;;;;;;;;5051809;28;20042;-73
2022/04/27 06:57:12;;;;;;;11.43;5.85;;;;;;;;;;5051805;28;20040;-72
2022/04/27 06:59:38;;;;;;;12.77;6.30;;;;;;;;;;5051692;28;20029;-72
2022/04/27 07:02:04;;;;;;;11.88;5.28;;;;;;;;;;5066856;28;20467;-72
2022/04/27 07:04:34;;;;;;;11.18;5.50;;;;;;;;;;5071273;28;20031;-73
2022/04/27 07:07:00;;;;;;;9.75;4.80;;;;;;;;;;5071406;28;20017;-72
2022/04/27 07:09:26;;;;;;;12.88;5.10;;;;;;;;;;5070960;28;20449;-73
2022/04/27 07:11:52;;;;;;;12.07;4.60;;;;;;;;;;5071407;28;20105;-73
2022/04/27 07:14:19;;;;;;;10.18;4.30;;;;;;;;;;5071369;28;20035;-73
2022/04/27 07:16:46;;;;;;;13.63;4.50;;;;;;;;;;5071028;28;20067;-72
2022/04/27 07:19:12;;;;;;;12.35;3.95;;;;;;;;;;5071070;28;20021;-72
2022/04/27 07:21:39;;;;;;;12.27;4.50;;;;;;;;;;5071136;28;20027;-72
2022/04/27 07:24:05;;;;;;;11.50;4.95;;;;;;;;;;5071088;28;20362;-72
2022/04/27 07:26:31;;;;;;;12.82;3.85;;;;;;;;;;5071187;28;20467;-72
2022/04/27 07:28:58;;;;;;;10.02;3.72;;;;;;;;;;5071118;28;20035;-72
2022/04/27 07:31:24;;;;;;;9.55;4.10;;;;;;;;;;5070874;28;20016;-73
2022/04/27 07:33:51;;;;;;;8.05;3.60;;;;;;;;;;5071101;28;20420;-72
2022/04/27 07:36:17;;;;;;;9.32;3.50;;;;;;;;;;5070851;28;20017;-72
2022/04/27 07:38:43;;;;;;;10.32;3.25;;;;;;;;;;5070690;28;20024;-73
2022/04/27 07:41:09;;;;;;;10.68;2.63;;;;;;;;;;5071053;28;20103;-72
2022/04/27 07:43:35;;;;;;;7.10;2.67;;;;;;;;;;5070943;28;20019;-73
2022/04/27 07:46:03;;;;;;;13.02;2.50;;;;;;;;;;5070550;28;20020;-72
2022/04/27 07:48:32;;;;;;;9.18;2.30;;;;;;;;;;5072485;28;20031;-73
2022/04/27 07:51:01;;;;;;;11.35;2.88;;;;;;;;;;5074796;28;20016;-73
2022/04/27 07:53:27;;;;;;;9.35;3.28;;;;;;;;;;5072204;28;20143;-72
2022/04/27 07:55:53;;;;;;;11.32;3.90;;;;;;;;;;5074799;28;20374;-73
2022/04/27 07:58:19;;;;;;;8.93;3.30;;;;;;;;;;5074579;28;20020;-73
2022/04/27 08:00:45;;;;;;;11.63;3.78;;;;;;;;;;5074602;28;20161;-72
2022/04/27 08:03:11;;;;;;;6.18;2.22;;;;;;;;;;5075032;28;20049;-73
2022/04/27 08:05:37;;;;;;;4.68;2.08;;;;;;;;;;5074683;28;20532;-73
2022/04/27 08:08:04;;;;;;;6.82;2.10;;;;;;;;;;5074989;28;20166;-73
2022/04/27 08:10:30;;;;;;;7.43;1.88;;;;;;;;;;5074643;28;20395;-73
2022/04/27 08:12:56;;;;;;;9.00;2.08;;;;;;;;;;5058737;28;20443;-73
2022/04/27 08:15:24;;;;;;;8.40;1.95;;;;;;;;;;5054669;28;20029;-73
2022/04/27 08:17:53;;;;;;;6.35;1.40;;;;;;;;;;5071317;28;20032;-73
2022/04/27 08:23:16;;;;;;;8.10;3.30;;;;;;;;;;5075132;28;20030;-73
2022/04/27 08:25:42;;;;;;;5.47;2.30;;;;;;;;;;5074562;28;20498;-74
2022/04/27 08:28:09;;;;;;;6.05;2.05;;;;;;;;;;5073181;28;20024;-73
2022/04/27 08:30:35;;;;;;;5.43;2.10;;;;;;;;;;5074420;28;20637;-73
2022/04/27 08:33:02;;;;;;;8.45;1.98;;;;;;;;;;5074338;28;20033;-73
2022/04/27 08:35:28;;;;;;;6.05;2.28;;;;;;;;;;5072817;28;20471;-73
2022/04/27 08:37:54;;;;;;;5.60;2.08;;;;;;;;;;5074085;28;20386;-73
2022/04/27 08:40:21;;;;;;;6.25;2.05;;;;;;;;;;5073693;28;20032;-73
2022/04/27 08:42:49;;;;;;;5.45;1.88;;;;;;;;;;5074373;28;20029;-71
2022/04/27 08:45:16;;;;;;;6.13;2.42;;;;;;;;;;5074421;28;20048;-74
2022/04/27 08:47:43;;;;;;;5.68;1.85;;;;;;;;;;5074251;28;20016;-75
2022/04/27 08:50:16;;;;;;;5.43;1.60;;;;;;;;;;5074233;28;20103;-74
2022/04/27 08:52:43;;;;;;;5.95;2.00;;;;;;;;;;5074102;28;20027;-71
2022/04/27 08:55:09;;;;;;;6.07;2.00;;;;;;;;;;5073911;28;20119;-71
2022/04/27 08:57:36;;;;;;;6.15;2.42;;;;;;;;;;5073479;28;20040;-73
2022/04/27 09:00:06;;;;;;;11.30;2.75;;;;;;;;;;5073867;28;20029;-74
2022/04/27 09:02:32;;;;;;;5.63;1.95;;;;;;;;;;5074029;28;20032;-75
2022/04/27 09:05:14;;;;;;;7.53;2.70;;;;;;;;;;5073953;28;20048;-74
2022/04/27 09:07:40;;;;;;;8.45;2.58;;;;;;;;;;5073861;28;20021;-72
2022/04/27 09:10:08;;;;;;;8.68;2.05;;;;;;;;;;5073810;28;20045;-72
2022/04/27 09:12:35;;;;;;;7.05;2.38;;;;;;;;;;5060866;28;20104;-72
2022/04/27 09:15:05;;;;;;;11.13;2.60;;;;;;;;;;5053544;28;20036;-72
2022/04/27 09:23:02;;;;;;;9.65;2.63;;;;;;;;;;5073691;28;20035;-72
2022/04/27 09:25:37;;;;;;;5.97;2.30;;;;;;;;;;5073637;28;20107;-74
2022/04/27 09:28:04;;;;;;;7.43;2.00;;;;;;;;;;5073547;28;20023;-74
2022/04/27 09:30:33;;;;;;;7.32;2.00;;;;;;;;;;5073120;28;20513;-72
2022/04/27 09:33:00;;;;;;;6.22;2.30;;;;;;;;;;5073396;28;20024;-74
2022/04/27 09:35:30;;;;;;;5.05;2.17;;;;;;;;;;5073067;28;20021;-74
2022/04/27 09:37:56;;;;;;;7.72;2.00;;;;;;;;;;5073280;28;20026;-73
2022/04/27 09:40:22;;;;;;;8.63;2.40;;;;;;;;;;5073249;28;20029;-74
2022/04/27 09:42:59;;;;;;;4.60;1.75;;;;;;;;;;5073141;28;20039;-73
2022/04/27 09:45:25;;;;;;;5.70;1.67;;;;;;;;;;5072962;28;20376;-74
2022/04/27 09:47:58;;;;;;;4.07;1.60;;;;;;;;;;5072974;28;20086;-76
2022/04/27 09:50:24;;;;;;;5.40;1.60;;;;;;;;;;5071549;28;20029;-74
2022/04/27 09:52:50;;;;;;;8.13;1.50;;;;;;;;;;5073060;28;20036;-74
2022/04/27 09:55:16;;;;;;;4.63;1.35;;;;;;;;;;5072991;28;20382;-74
2022/04/27 09:57:43;;;;;;;8.25;1.65;;;;;;;;;;5073050;28;20028;-74
2022/04/27 10:00:12;;;;;;;4.78;1.55;;;;;;;;;;5071322;28;20032;-72
2022/04/27 10:02:39;;;;;;;4.65;1.65;;;;;;;;;;5072611;28;20024;-74
2022/04/27 10:05:05;;;;;;;8.48;1.98;;;;;;;;;;5072544;28;20578;-72
2022/04/27 10:07:32;;;;;;;7.43;1.67;;;;;;;;;;5071252;28;20037;-74
2022/04/27 10:09:59;;;;;;;5.00;1.60;;;;;;;;;;5071654;28;20459;-74
2022/04/27 10:12:25;;;;;;;2.90;1.55;;;;;;;;;;5060855;28;20033;-72
2022/04/27 10:14:51;;;;;;;5.25;1.90;;;;;;;;;;5052572;28;20117;-74
2022/04/27 10:17:17;;;;;;;4.18;2.00;;;;;;;;;;5064005;28;20032;-74
2022/04/27 10:19:52;;;;;;;7.68;2.13;;;;;;;;;;5072187;28;20067;-74
2022/04/27 10:22:25;;;;;;;7.25;2.40;;;;;;;;;;5072186;28;20025;-74
2022/04/27 10:24:51;;;;;;;9.52;2.03;;;;;;;;;;5072071;28;20471;-73
2022/04/27 10:27:20;;;;;;;5.43;2.03;;;;;;;;;;5072243;28;20029;-72
2022/04/27 10:29:51;;;;;;;4.10;1.88;;;;;;;;;;5070455;28;20420;-72
2022/04/27 10:32:36;;;;;;;5.75;1.90;;;;;;;;;;5072179;28;20020;-72
2022/04/27 10:35:19;;;;;;;12.52;2.55;;;;;;;;;;5071870;28;20059;-72
2022/04/27 10:37:53;;;;;;;4.82;1.83;;;;;;;;;;5072138;28;20028;-72
2022/04/27 10:40:35;;;;;;;6.28;2.20;;;;;;;;;;5071985;28;20040;-73
2022/04/27 10:43:01;;;;;;;5.10;2.80;;;;;;;;;;5072147;28;20082;-72
2022/04/27 10:45:28;;;;;;;7.82;1.90;;;;;;;;;;5070468;28;20398;-72
2022/04/27 10:47:54;;;;;;;3.83;1.95;;;;;;;;;;5071847;28;20025;-73
2022/04/27 10:50:23;;;;;;;8.82;2.45;;;;;;;;;;5071647;28;20043;-72
2022/04/27 10:52:55;;;;;;;3.80;1.67;;;;;;;;;;5071992;28;20020;-72
2022/04/27 10:55:37;;;;;;;4.00;1.87;;;;;;;;;;5071896;28;20031;-72
2022/04/27 10:58:30;;;;;;;5.40;1.58;;;;;;;;;;5071911;28;20028;-72
2022/04/27 11:01:02;;;;;;;5.32;1.90;;;;;;;;;;5069782;28;20045;-73
2022/04/27 11:03:28;;;;;;;2.13;1.50;;;;;;;;;;5071790;28;20470;-72
2022/04/27 11:05:57;;;;;;;7.82;2.42;;;;;;;;;;5071512;28;20036;-73
2022/04/27 11:08:23;;;;;;;5.88;1.90;;;;;;;;;;5071754;28;20029;-73
2022/04/27 11:10:52;;;;;;;10.15;2.15;;;;;;;;;;5071608;28;20044;-73
2022/04/27 11:13:18;;;;;;;7.22;2.33;;;;;;;;;;5052465;28;20063;-73
2022/04/27 11:15:45;;;;;;;6.95;2.00;;;;;;;;;;5051606;28;20075;-72
2022/04/27 11:18:13;;;;;;;6.10;2.00;;;;;;;;;;5070942;28;20050;-74
2022/04/27 11:20:40;;;;;;;5.28;1.98;;;;;;;;;;5071260;28;20454;-72
2022/04/27 11:23:08;;;;;;;5.75;2.00;;;;;;;;;;5071625;28;20048;-72
2022/04/27 11:25:39;;;;;;;9.18;2.38;;;;;;;;;;5071414;28;20021;-72
2022/04/27 11:28:06;;;;;;;5.47;1.92;;;;;;;;;;5071656;28;20037;-72
2022/04/27 11:30:33;;;;;;;5.03;2.20;;;;;;;;;;5071284;28;20031;-75
2022/04/27 11:33:01;;;;;;;4.28;2.10;;;;;;;;;;5071635;28;20075;-75
2022/04/27 11:35:38;;;;;;;5.03;2.30;;;;;;;;;;5071355;28;20543;-72
2022/04/27 11:38:04;;;;;;;4.10;2.25;;;;;;;;;;5071552;28;20103;-73
2022/04/27 11:40:36;;;;;;;6.15;2.38;;;;;;;;;;5071359;28;20476;-73
2022/04/27 11:43:04;;;;;;;6.80;2.08;;;;;;;;;;5071557;28;20192;-73
2022/04/27 11:45:30;;;;;;;3.53;1.92;;;;;;;;;;5071223;28;20486;-74
2022/04/27 11:48:00;;;;;;;6.97;2.20;;;;;;;;;;5071379;28;20455;-73
2022/04/27 11:50:37;;;;;;;7.00;2.05;;;;;;;;;;5071340;28;20099;-72
2022/04/27 11:53:04;;;;;;;5.00;2.50;;;;;;;;;;5071409;28;20656;-73
2022/04/27 11:55:31;;;;;;;8.88;2.60;;;;;;;;;;5071270;28;20028;-73
2022/04/27 11:57:57;;;;;;;7.28;2.30;;;;;;;;;;5070768;28;20039;-74
2022/04/27 12:00:25;;;;;;;4.82;2.30;;;;;;;;;;5070143;28;20074;-73
2022/04/27 12:02:53;;;;;;;6.63;2.33;;;;;;;;;;5068502;28;20400;-73
2022/04/27 12:05:28;;;;;;;5.03;2.10;;;;;;;;;;5068669;28;20031;-73
2022/04/27 12:07:55;;;;;;;5.72;2.00;;;;;;;;;;5069919;28;20024;-74
2022/04/27 12:10:21;;;;;;;4.35;2.28;;;;;;;;;;5071333;28;20032;-73
2022/04/27 12:12:47;;;;;;;5.68;2.42;;;;;;;;;;5071365;28;20031;-73
2022/04/27 12:15:14;;;;;;;4.43;1.90;;;;;;;;;;5071340;28;20032;-73
2022/04/27 12:17:46;;;;;;;7.93;2.15;;;;;;;;;;5070778;28;20036;-73
2022/04/27 12:20:25;;;;;;;4.72;2.03;;;;;;;;;;5068039;28;20515;-73
2022/04/27 12:22:52;;;;;;;4.60;2.00;;;;;;;;;;5068001;28;20019;-73
2022/04/27 12:25:18;;;;;;;7.65;2.13;;;;;;;;;;5069235;28;20025;-73
2022/04/27 12:27:44;;;;;;;7.47;2.30;;;;;;;;;;5070673;28;20021;-73
2022/04/27 12:30:10;;;;;;;5.43;1.92;;;;;;;;;;5070293;28;20047;-73
2022/04/27 12:32:37;;;;;;;6.63;2.25;;;;;;;;;;5071033;28;20048;-74
2022/04/27 12:37:51;;;;;;;7.53;2.00;;;;;;;;;;5074898;28;20042;-74
2022/04/27 12:40:17;;;;;;;6.93;2.22;;;;;;;;;;5074432;28;20032;-73
2022/04/27 12:43:02;;;;;;;7.10;1.90;;;;;;;;;;5074502;28;20075;-73
2022/04/27 12:45:29;;;;;;;6.97;2.35;;;;;;;;;;5073822;28;20025;-73
2022/04/27 12:47:55;;;;;;;6.70;2.05;;;;;;;;;;5073941;28;20046;-74
2022/04/27 12:50:21;;;;;;;5.65;2.00;;;;;;;;;;5073999;28;20028;-73
2022/04/27 12:52:47;;;;;;;6.15;2.10;;;;;;;;;;5074311;28;20448;-73
2022/04/27 12:55:15;;;;;;;6.88;1.92;;;;;;;;;;5074244;28;20054;-74
2022/04/27 12:57:44;;;;;;;5.45;2.00;;;;;;;;;;5074223;28;20028;-74
2022/04/27 13:00:11;;;;;;;5.85;2.50;;;;;;;;;;5073878;28;20028;-74
2022/04/27 13:02:37;;;;;;;5.50;2.33;;;;;;;;;;5074022;28;20024;-74
2022/04/27 13:05:03;;;;;;;3.60;2.00;;;;;;;;;;5073915;28;20066;-74
2022/04/27 13:07:29;;;;;;;6.10;2.35;;;;;;;;;;5073902;28;20040;-74
2022/04/27 13:12:40;;;;;;;6.45;2.50;;;;;;;;;;5059994;28;20041;-74
2022/04/27 13:15:07;;;;;;;6.22;2.25;;;;;;;;;;5054036;28;20071;-74
2022/04/27 13:17:33;;;;;;;6.00;2.50;;;;;;;;;;5067763;28;20020;-74
2022/04/27 13:20:00;;;;;;;7.15;2.67;;;;;;;;;;5073555;28;20032;-74
2022/04/27 13:22:26;;;;;;;11.95;2.40;;;;;;;;;;5073680;28;20021;-73
2022/04/27 13:24:52;;;;;;;10.52;2.60;;;;;;;;;;5073636;28;20078;-75
2022/04/27 13:27:19;;;;;;;12.00;3.35;;;;;;;;;;5073270;28;20021;-73
2022/04/27 13:29:45;;;;;;;9.57;2.60;;;;;;;;;;5071646;28;20051;-74
2022/04/27 13:32:11;;;;;;;6.40;2.40;;;;;;;;;;5072930;28;20067;-72
2022/04/27 13:34:37;;;;;;;9.07;2.42;;;;;;;;;;5073111;28;20048;-72
2022/04/27 13:37:03;;;;;;;7.03;2.20;;;;;;;;;;5071387;28;20428;-72
2022/04/27 13:39:30;;;;;;;6.00;2.30;;;;;;;;;;5071504;28;20454;-71
2022/04/27 13:41:59;;;;;;;5.25;2.15;;;;;;;;;;5073066;28;20332;-71
2022/04/27 13:44:25;;;;;;;6.22;2.05;;;;;;;;;;5072721;28;20055;-74
2022/04/27 13:46:52;;;;;;;6.95;2.33;;;;;;;;;;5072126;28;20490;-71
2022/04/27 13:49:19;;;;;;;6.85;2.28;;;;;;;;;;5072455;28;20056;-73
2022/04/27 13:51:46;;;;;;;4.43;1.90;;;;;;;;;;5070772;28;20024;-72
2022/04/27 13:54:14;;;;;;;9.05;3.10;;;;;;;;;;5072111;28;20060;-72
2022/04/27 13:56:40;;;;;;;5.40;2.20;;;;;;;;;;5072124;28;20031;-71
2022/04/27 13:59:06;;;;;;;5.93;2.63;;;;;;;;;;5070686;28;20098;-71
2022/04/27 14:01:32;;;;;;;8.50;2.40;;;;;;;;;;5071983;28;20013;-71
2022/04/27 14:03:58;;;;;;;4.18;2.33;;;;;;;;;;5072000;28;20087;-71
2022/04/27 14:06:24;;;;;;;5.53;2.15;;;;;;;;;;5071838;28;20029;-71
2022/04/27 14:08:51;;;;;;;7.70;2.35;;;;;;;;;;5071699;28;20040;-71
2022/04/27 14:14:03;;;;;;;4.88;2.17;;;;;;;;;;5072041;28;20535;-71
2022/04/27 14:19:13;;;;;;;5.78;2.08;;;;;;;;;;5069859;28;20043;-72
2022/04/27 14:21:40;;;;;;;8.27;2.97;;;;;;;;;;5071977;28;20354;-71
2022/04/27 14:24:09;;;;;;;4.93;2.03;;;;;;;;;;5072060;28;20070;-71
2022/04/27 14:26:35;;;;;;;6.68;2.33;;;;;;;;;;5072041;28;20021;-72
2022/04/27 14:29:01;;;;;;;5.75;2.20;;;;;;;;;;5071856;28;20096;-71
2022/04/27 14:31:27;;;;;;;6.50;2.10;;;;;;;;;;5071786;28;20131;-71
2022/04/27 14:33:54;;;;;;;6.90;1.65;;;;;;;;;;5071924;28;20055;-72
2022/04/27 14:36:21;;;;;;;9.15;2.35;;;;;;;;;;5071583;28;20040;-72
2022/04/27 14:38:47;;;;;;;6.88;2.03;;;;;;;;;;5070499;28;20013;-71
2022/04/27 14:41:16;;;;;;;5.35;1.75;;;;;;;;;;5071377;28;20488;-71
2022/04/27 14:43:42;;;;;;;11.57;2.35;;;;;;;;;;5071723;28;20320;-72
2022/04/27 14:46:08;;;;;;;5.13;1.70;;;;;;;;;;5071417;28;20036;-72
2022/04/27 14:48:35;;;;;;;7.90;1.90;;;;;;;;;;5071648;28;20427;-72
2022/04/27 14:51:01;;;;;;;9.80;2.05;;;;;;;;;;5071367;28;20028;-72
2022/04/27 14:53:27;;;;;;;9.05;2.10;;;;;;;;;;5071551;28;20036;-72
2022/04/27 14:55:55;;;;;;;8.00;2.00;;;;;;;;;;5071139;28;20024;-71
2022/04/27 14:58:21;;;;;;;9.23;1.90;;;;;;;;;;5071654;28;20104;-72
2022/04/27 15:00:47;;;;;;;7.03;1.98;;;;;;;;;;5071330;28;20032;-71
2022/04/27 15:03:13;;;;;;;4.60;1.73;;;;;;;;;;5071778;28;20021;-72
2022/04/27 15:05:40;;;;;;;8.13;1.73;;;;;;;;;;5068111;28;20466;-72
2022/04/27 15:08:07;;;;;;;5.82;1.80;;;;;;;;;;5071997;28;20032;-71
2022/04/27 15:10:34;;;;;;;5.30;1.52;;;;;;;;;;5071726;28;20041;-72